Time;durP1;ratioP1;P1;durP2;ratioP2;P2;SDS_P1;SDS_P2;PMS_P1;PMS_P2;Temp;Humidity;BMP_temperature;BMP_pressure;BME280_temperature;BME280_humidity;BME280_pressure;Samples;Min_cycle;Max_cycle;Signal;HPM_P1;HPM_P2
2023/09/16 00:01:54;;;;;;;5.28;3.05;;;19.90;57.90;21.60;101311.00;;;;5028683;28;20224;-80
2023/09/16 00:04:23;;;;;;;4.30;2.95;;;19.90;58.00;21.60;101317.00;;;;5030230;28;20189;-80
2023/09/16 00:06:51;;;;;;;2.90;2.47;;;19.90;58.00;21.60;101313.00;;;;5029771;28;20196;-80
2023/09/16 00:09:18;;;;;;;3.50;2.83;;;19.80;57.90;21.60;101315.00;;;;5029229;28;20223;-80
2023/09/16 00:11:45;;;;;;;4.03;2.75;;;19.80;58.00;21.60;101319.00;;;;5029024;28;20205;-79
2023/09/16 00:14:12;;;;;;;4.10;2.92;;;19.80;58.00;21.60;101320.00;;;;5029748;28;20199;-79
2023/09/16 00:16:40;;;;;;;3.50;2.90;;;19.80;58.00;21.50;101319.00;;;;5030197;28;20188;-79
2023/09/16 00:19:09;;;;;;;5.22;3.40;;;19.80;58.10;21.50;101319.00;;;;5027969;28;20219;-79
2023/09/16 00:21:36;;;;;;;3.70;3.05;;;19.80;58.10;21.50;101312.00;;;;5029578;28;20201;-79
2023/09/16 00:24:04;;;;;;;4.10;2.83;;;19.80;58.20;21.50;101311.00;;;;5029159;28;20200;-80
2023/09/16 00:26:34;;;;;;;3.40;2.80;;;19.80;58.20;21.50;101314.00;;;;5029418;28;20564;-80
2023/09/16 00:29:02;;;;;;;3.83;3.00;;;19.80;58.20;21.50;101306.00;;;;5029712;28;20196;-80
2023/09/16 00:31:29;;;;;;;4.35;3.22;;;19.80;58.20;21.50;101303.00;;;;5028862;28;20313;-80
2023/09/16 00:33:56;;;;;;;3.15;2.85;;;19.80;58.30;21.50;101297.00;;;;5028070;28;20205;-79
2023/09/16 00:36:23;;;;;;;3.83;3.20;;;19.80;58.20;21.50;101295.00;;;;5029148;28;20755;-80
2023/09/16 00:38:50;;;;;;;4.18;3.30;;;19.70;58.20;21.40;101296.00;;;;5031010;28;20189;-80
2023/09/16 00:41:18;;;;;;;4.95;3.15;;;19.70;58.30;21.40;101301.00;;;;5028728;28;20250;-80
2023/09/16 00:43:45;;;;;;;5.72;3.58;;;19.70;58.30;21.40;101291.00;;;;5029480;28;20200;-80
2023/09/16 00:46:12;;;;;;;6.22;3.50;;;19.70;58.20;21.40;101287.00;;;;5028677;28;20208;-79
2023/09/16 00:48:45;;;;;;;4.07;3.20;;;19.70;58.30;21.40;101294.00;;;;5029697;28;20215;-80
2023/09/16 00:51:14;;;;;;;4.45;2.83;;;19.60;58.30;21.40;101292.00;;;;5028704;28;20216;-79
2023/09/16 00:53:44;;;;;;;8.15;3.10;;;19.60;58.30;21.40;101288.00;;;;5030205;28;20196;-80
2023/09/16 00:56:12;;;;;;;3.10;2.80;;;19.60;58.30;21.30;101290.00;;;;5028525;28;20197;-80
2023/09/16 00:58:41;;;;;;;3.45;2.92;;;19.60;58.40;21.30;101283.00;;;;5029288;28;20208;-80
2023/09/16 01:01:09;;;;;;;4.22;3.08;;;19.60;58.40;21.30;101289.00;;;;5029312;28;20226;-80
2023/09/16 01:03:37;;;;;;;3.55;3.08;;;19.60;58.40;21.30;101289.00;;;;5028330;28;20282;-80
2023/09/16 01:06:04;;;;;;;3.88;3.35;;;19.60;58.50;21.30;101292.00;;;;5028759;28;20203;-80
2023/09/16 01:08:34;;;;;;;4.85;3.58;;;19.60;58.60;21.30;101287.00;;;;5027617;28;20247;-79
2023/09/16 01:11:04;;;;;;;4.65;3.00;;;19.50;58.50;21.30;101291.00;;;;5026383;28;20318;-80
2023/09/16 01:13:34;;;;;;;4.70;3.17;;;19.50;58.50;21.20;101288.00;;;;5027637;28;20192;-80
2023/09/16 01:16:13;;;;;;;3.08;2.58;;;19.50;58.50;21.10;101289.00;;;;5026854;28;20196;-79
2023/09/16 01:18:49;;;;;;;3.65;2.92;;;19.50;58.70;21.20;101287.00;;;;5028608;28;20200;-80
2023/09/16 01:21:18;;;;;;;4.22;3.35;;;19.50;58.60;21.20;101293.00;;;;5025498;28;20319;-80
2023/09/16 01:23:45;;;;;;;4.05;2.80;;;19.50;58.60;21.20;101292.00;;;;5027941;28;20798;-80
2023/09/16 01:26:14;;;;;;;4.43;3.08;;;19.50;58.70;21.10;101290.00;;;;5025146;28;20207;-79
2023/09/16 01:28:41;;;;;;;3.70;3.03;;;19.40;58.60;21.20;101293.00;;;;5013126;28;20192;-80
2023/09/16 01:31:09;;;;;;;3.38;2.90;;;19.40;58.70;21.10;101288.00;;;;5027163;28;20596;-80
2023/09/16 01:33:45;;;;;;;5.85;3.50;;;19.40;58.70;21.00;101280.00;;;;5026816;28;20204;-80
2023/09/16 01:36:26;;;;;;;4.25;3.10;;;19.30;58.80;21.00;101274.00;;;;5027238;28;20200;-79
2023/09/16 01:39:03;;;;;;;3.22;2.58;;;19.30;58.80;21.00;101273.00;;;;5028200;28;20207;-80
2023/09/16 01:41:34;;;;;;;2.97;2.63;;;19.40;58.80;21.00;101268.00;;;;5027647;28;20406;-79
2023/09/16 01:44:02;;;;;;;3.60;2.65;;;19.30;58.80;21.00;101257.00;;;;5028021;28;20204;-79
2023/09/16 01:46:29;;;;;;;3.00;2.70;;;19.30;58.70;21.00;101264.00;;;;5027094;28;20222;-79
2023/09/16 01:48:56;;;;;;;3.63;3.08;;;19.30;58.80;21.00;101263.00;;;;5028030;28;20335;-80
2023/09/16 01:51:24;;;;;;;3.40;2.83;;;19.30;58.80;21.00;101276.00;;;;5024501;28;20234;-79
2023/09/16 01:53:51;;;;;;;3.80;2.95;;;19.20;58.80;21.00;101263.00;;;;5026047;28;20694;-80
2023/09/16 01:56:18;;;;;;;4.68;2.85;;;19.20;58.90;21.00;101264.00;;;;5026867;28;20204;-80
2023/09/16 01:58:46;;;;;;;3.88;3.15;;;19.20;58.90;20.90;101267.00;;;;5027682;28;20211;-80
2023/09/16 02:01:15;;;;;;;3.05;2.67;;;19.20;58.90;20.90;101265.00;;;;5016974;28;20216;-79
2023/09/16 02:03:42;;;;;;;3.53;2.92;;;19.20;58.90;20.90;101268.00;;;;5026334;28;20236;-79
2023/09/16 02:06:09;;;;;;;5.03;3.35;;;19.20;58.90;20.90;101260.00;;;;5027561;28;20204;-79
2023/09/16 02:08:36;;;;;;;3.13;2.83;;;19.20;59.00;20.90;101265.00;;;;5024738;28;20581;-80
2023/09/16 02:11:04;;;;;;;3.78;3.00;;;19.20;59.00;20.90;101268.00;;;;5023324;28;20248;-79
2023/09/16 02:13:32;;;;;;;3.90;3.03;;;19.10;59.00;20.90;101262.00;;;;5024370;28;20311;-79
2023/09/16 02:16:00;;;;;;;4.07;3.30;;;19.10;59.00;20.80;101264.00;;;;5028069;28;20207;-80
2023/09/16 02:18:27;;;;;;;4.18;3.22;;;19.10;59.00;20.80;101266.00;;;;5027138;28;20208;-79
2023/09/16 02:20:54;;;;;;;4.10;2.72;;;19.10;59.10;20.80;101270.00;;;;5026793;28;20562;-79
2023/09/16 02:23:22;;;;;;;3.35;2.95;;;19.10;59.10;20.80;101264.00;;;;5027238;28;20198;-80
2023/09/16 02:25:49;;;;;;;4.10;2.92;;;19.10;59.10;20.80;101261.00;;;;5028329;28;20204;-79
2023/09/16 02:28:16;;;;;;;4.60;3.45;;;19.00;59.20;20.80;101275.00;;;;5025389;28;20207;-79
2023/09/16 02:30:43;;;;;;;4.72;3.15;;;19.00;59.10;20.80;101276.00;;;;5029755;28;20353;-80
2023/09/16 02:33:11;;;;;;;4.05;3.08;;;19.00;59.10;20.70;101276.00;;;;5030599;28;20662;-80
2023/09/16 02:35:40;;;;;;;3.30;2.75;;;19.00;59.10;20.70;101273.00;;;;5026477;28;20199;-79
2023/09/16 02:38:07;;;;;;;3.40;2.97;;;19.00;59.20;20.70;101267.00;;;;5027561;28;20196;-79
2023/09/16 02:40:39;;;;;;;4.15;2.80;;;19.00;59.10;20.60;101263.00;;;;5028406;28;20295;-79
2023/09/16 02:43:06;;;;;;;5.13;2.83;;;18.90;59.20;20.70;101273.00;;;;5028339;28;20193;-79
2023/09/16 02:45:39;;;;;;;4.15;2.75;;;18.90;59.20;20.60;101267.00;;;;5027405;28;20211;-79
2023/09/16 02:48:06;;;;;;;4.75;3.00;;;18.90;59.20;20.70;101274.00;;;;5039847;28;20661;-79
2023/09/16 02:50:35;;;;;;;4.20;3.33;;;18.90;59.20;20.60;101268.00;;;;5040384;28;20232;-79
2023/09/16 02:53:02;;;;;;;3.78;3.20;;;18.90;59.30;20.60;101269.00;;;;5028183;28;20196;-79
2023/09/16 02:55:29;;;;;;;4.38;2.88;;;18.90;59.40;20.60;101266.00;;;;5026712;28;20196;-79
2023/09/16 02:57:56;;;;;;;2.97;2.53;;;18.80;59.30;20.60;101264.00;;;;5028882;28;20199;-80
2023/09/16 03:00:23;;;;;;;3.13;2.30;;;18.80;59.30;20.60;101260.00;;;;5025011;28;20204;-79
2023/09/16 03:02:50;;;;;;;3.00;2.60;;;18.80;59.40;20.60;101263.00;;;;5027493;28;20235;-79
2023/09/16 03:05:18;;;;;;;3.85;3.30;;;18.80;59.40;20.60;101258.00;;;;5027242;28;20189;-79
2023/09/16 03:07:46;;;;;;;4.25;2.70;;;18.80;59.50;20.50;101255.00;;;;5027602;28;20207;-80
2023/09/16 03:10:13;;;;;;;3.78;3.20;;;18.80;59.50;20.50;101262.00;;;;5027049;28;20224;-80
2023/09/16 03:12:40;;;;;;;3.92;2.53;;;18.80;59.50;20.50;101256.00;;;;5027774;28;20200;-79
2023/09/16 03:15:10;;;;;;;3.42;2.70;;;18.80;59.50;20.50;101252.00;;;;5028214;28;20712;-80
2023/09/16 03:17:37;;;;;;;3.00;2.70;;;18.70;59.50;20.50;101253.00;;;;5027896;28;20201;-79
2023/09/16 03:20:04;;;;;;;4.05;2.85;;;18.70;59.50;20.50;101248.00;;;;5027548;28;20204;-79
2023/09/16 03:22:32;;;;;;;4.32;3.10;;;18.70;59.50;20.50;101247.00;;;;5026233;28;20287;-80
2023/09/16 03:25:01;;;;;;;3.78;3.00;;;18.70;59.60;20.40;101249.00;;;;5027473;28;20199;-79
2023/09/16 03:27:28;;;;;;;3.17;2.88;;;18.70;59.60;20.40;101248.00;;;;5029804;28;20208;-79
2023/09/16 03:29:55;;;;;;;3.55;2.92;;;18.70;59.60;20.40;101249.00;;;;5030670;28;20200;-79
2023/09/16 03:32:27;;;;;;;3.80;2.78;;;18.70;59.60;20.40;101246.00;;;;5030477;28;20220;-79
2023/09/16 03:34:54;;;;;;;3.30;2.58;;;18.70;59.60;20.40;101250.00;;;;5032840;28;20731;-79
2023/09/16 03:37:21;;;;;;;4.78;3.17;;;18.60;60.20;20.40;101240.00;;;;5030161;28;20203;-80
2023/09/16 03:39:48;;;;;;;4.03;3.10;;;18.60;59.60;20.40;101250.00;;;;5030801;28;20204;-79
2023/09/16 03:42:16;;;;;;;4.32;3.13;;;18.60;59.70;20.40;101238.00;;;;5027820;28;20192;-80
2023/09/16 03:44:44;;;;;;;3.95;3.42;;;18.60;59.70;20.30;101231.00;;;;5029386;28;20207;-79
2023/09/16 03:47:12;;;;;;;4.30;3.05;;;18.60;59.70;20.30;101226.00;;;;5034203;28;20191;-79
2023/09/16 03:49:39;;;;;;;4.07;3.38;;;18.60;59.70;20.30;101225.00;;;;5032629;28;20200;-79
2023/09/16 03:52:06;;;;;;;3.60;3.05;;;18.60;59.70;20.30;101219.00;;;;5025883;28;20220;-79
2023/09/16 03:54:33;;;;;;;5.15;3.38;;;18.60;59.80;20.30;101218.00;;;;5029130;28;20203;-79
2023/09/16 03:57:00;;;;;;;4.20;3.10;;;18.50;59.80;20.30;101222.00;;;;5030019;28;20223;-79
2023/09/16 03:59:29;;;;;;;5.25;3.47;;;18.50;59.80;20.30;101212.00;;;;5030088;28;20198;-80
2023/09/16 04:01:56;;;;;;;4.40;3.35;;;18.50;59.80;20.30;101221.00;;;;5030024;28;20216;-80
2023/09/16 04:04:23;;;;;;;4.07;3.08;;;18.50;59.80;20.30;101224.00;;;;5029831;28;20208;-80
2023/09/16 04:06:49;;;;;;;4.38;2.65;;;18.50;59.80;20.30;101217.00;;;;5029174;28;20670;-80
2023/09/16 04:09:16;;;;;;;4.10;3.17;;;18.50;59.80;20.30;101218.00;;;;5029110;28;20213;-79
2023/09/16 04:11:43;;;;;;;4.38;3.47;;;18.50;59.90;20.20;101212.00;;;;5029820;28;20709;-80
2023/09/16 04:14:11;;;;;;;4.85;3.30;;;18.50;59.90;20.20;101219.00;;;;5029521;28;20192;-79
2023/09/16 04:16:41;;;;;;;3.85;3.47;;;18.40;59.80;20.20;101219.00;;;;5029498;28;20690;-80
2023/09/16 04:19:08;;;;;;;4.60;3.50;;;18.50;60.00;20.20;101219.00;;;;5029965;28;20208;-80
2023/09/16 04:21:37;;;;;;;4.40;3.95;;;18.40;59.90;20.20;101218.00;;;;5030329;28;20291;-79
2023/09/16 04:24:05;;;;;;;4.10;3.63;;;18.40;59.90;20.20;101215.00;;;;5029397;28;20209;-79
2023/09/16 04:26:33;;;;;;;6.35;4.20;;;18.40;59.90;20.20;101217.00;;;;5029804;28;20192;-80
2023/09/16 04:28:59;;;;;;;4.45;4.03;;;18.40;60.00;20.20;101217.00;;;;5030157;28;20197;-79
2023/09/16 04:31:26;;;;;;;5.60;4.22;;;18.40;60.00;20.20;101227.00;;;;5028471;28;20231;-80
2023/09/16 04:33:55;;;;;;;4.47;3.90;;;18.40;60.00;20.10;101223.00;;;;5030005;28;20227;-80
2023/09/16 04:36:23;;;;;;;6.38;4.40;;;18.40;60.10;20.10;101217.00;;;;5029234;28;20208;-79
2023/09/16 04:38:50;;;;;;;5.38;4.40;;;18.40;60.10;20.10;101217.00;;;;5029482;28;20258;-79
2023/09/16 04:41:20;;;;;;;5.32;4.50;;;18.40;60.10;20.10;101226.00;;;;5030169;28;20184;-80
2023/09/16 04:43:49;;;;;;;5.35;4.07;;;18.30;60.10;20.10;101221.00;;;;5027877;28;20207;-80
2023/09/16 04:46:18;;;;;;;5.32;4.47;;;18.30;60.10;20.10;101222.00;;;;5029052;28;20235;-80
2023/09/16 04:48:45;;;;;;;4.65;3.83;;;18.30;60.20;20.10;101213.00;;;;5031995;28;20192;-79
2023/09/16 04:51:13;;;;;;;5.10;4.20;;;18.30;60.20;20.10;101217.00;;;;5029115;28;20224;-79
2023/09/16 04:53:40;;;;;;;5.43;4.13;;;18.30;60.20;20.10;101210.00;;;;5028913;28;20200;-80
2023/09/16 04:56:09;;;;;;;5.85;5.25;;;18.30;60.20;20.10;101213.00;;;;5029761;28;20564;-80
2023/09/16 04:58:36;;;;;;;4.90;4.25;;;18.30;60.20;20.00;101209.00;;;;5027531;28;20200;-79
2023/09/16 05:01:04;;;;;;;6.05;4.18;;;18.30;60.20;20.00;101215.00;;;;5026770;28;20224;-79
2023/09/16 05:03:31;;;;;;;5.28;3.85;;;18.30;60.20;20.00;101218.00;;;;5027812;28;20232;-78
2023/09/16 05:05:58;;;;;;;5.43;4.22;;;18.20;60.20;20.00;101219.00;;;;5029237;28;20196;-78
2023/09/16 05:08:27;;;;;;;6.20;4.03;;;18.20;60.20;20.00;101217.00;;;;5028885;28;20234;-79
2023/09/16 05:10:54;;;;;;;4.78;4.03;;;18.20;60.30;20.00;101211.00;;;;5027706;28;20228;-78
2023/09/16 05:13:22;;;;;;;4.55;4.05;;;18.20;60.30;20.00;101209.00;;;;5026481;28;20544;-78
2023/09/16 05:15:50;;;;;;;5.43;4.15;;;18.20;60.40;20.00;101208.00;;;;5029536;28;20208;-78
2023/09/16 05:18:18;;;;;;;4.07;3.67;;;18.20;60.30;20.00;101208.00;;;;5027889;28;20212;-78
2023/09/16 05:20:44;;;;;;;4.93;4.18;;;18.20;60.30;19.90;101215.00;;;;5028308;28;20954;-79
2023/09/16 05:23:13;;;;;;;5.07;4.07;;;18.20;60.40;19.90;101215.00;;;;5026778;28;20199;-78
2023/09/16 05:25:47;;;;;;;4.20;3.78;;;18.20;60.50;19.90;101217.00;;;;5027219;28;20201;-78
2023/09/16 05:28:14;;;;;;;4.70;3.90;;;18.10;60.50;19.90;101228.00;;;;5023263;28;20204;-78
2023/09/16 05:30:42;;;;;;;5.38;3.70;;;18.10;60.40;19.90;101223.00;;;;5026250;28;20184;-78
2023/09/16 05:33:10;;;;;;;4.65;3.85;;;18.10;60.40;19.90;101217.00;;;;5026898;28;20645;-78
2023/09/16 05:35:37;;;;;;;3.83;3.53;;;18.10;60.50;19.90;101217.00;;;;5028066;28;20212;-78
2023/09/16 05:38:04;;;;;;;5.53;3.83;;;18.10;60.50;19.90;101224.00;;;;5027191;28;20616;-78
2023/09/16 05:40:32;;;;;;;4.28;3.30;;;18.10;60.60;19.90;101224.00;;;;5026046;28;20216;-78
2023/09/16 05:43:00;;;;;;;5.68;4.00;;;18.10;60.60;19.90;101218.00;;;;5025851;28;20211;-79
2023/09/16 05:45:27;;;;;;;5.28;3.00;;;18.10;60.70;19.90;101222.00;;;;5019759;28;20200;-79
2023/09/16 05:47:55;;;;;;;3.88;3.17;;;18.10;60.70;19.90;101221.00;;;;5024387;28;20635;-79
2023/09/16 05:50:22;;;;;;;4.85;3.30;;;18.10;60.80;19.90;101220.00;;;;5018888;28;20615;-79
2023/09/16 05:52:49;;;;;;;7.32;3.63;;;18.10;60.80;19.90;101221.00;;;;5024837;28;20216;-80
2023/09/16 05:55:17;;;;;;;5.18;3.35;;;18.10;60.90;19.90;101227.00;;;;5024445;28;20203;-81
2023/09/16 05:57:45;;;;;;;4.95;3.85;;;18.10;60.90;19.90;101226.00;;;;5024849;28;20196;-81
2023/09/16 06:00:14;;;;;;;5.50;4.18;;;18.10;61.00;19.90;101223.00;;;;5023806;28;20204;-80
2023/09/16 06:02:41;;;;;;;4.97;3.70;;;18.10;61.10;19.90;101227.00;;;;5025265;28;20628;-80
2023/09/16 06:05:10;;;;;;;4.25;3.80;;;18.10;61.10;19.90;101228.00;;;;5024170;28;20211;-80
2023/09/16 06:07:40;;;;;;;4.85;3.63;;;18.10;61.80;20.00;101231.00;;;;5025678;28;20659;-80
2023/09/16 06:10:08;;;;;;;4.80;3.97;;;18.10;61.20;20.00;101233.00;;;;5022606;28;20932;-80
2023/09/16 06:12:35;;;;;;;4.15;3.75;;;18.20;61.30;20.00;101237.00;;;;5021363;28;20216;-79
2023/09/16 06:15:05;;;;;;;4.18;3.60;;;18.20;61.30;20.00;101243.00;;;;5024736;28;20200;-80
2023/09/16 06:17:42;;;;;;;6.28;3.65;;;18.20;61.50;20.00;101243.00;;;;5021011;28;20641;-80
2023/09/16 06:20:10;;;;;;;3.83;3.20;;;18.20;61.70;20.10;101243.00;;;;5025387;28;20192;-80
2023/09/16 06:22:37;;;;;;;5.28;3.83;;;18.30;61.60;20.10;101244.00;;;;5025259;28;20192;-79
2023/09/16 06:25:06;;;;;;;6.03;4.28;;;18.30;61.60;20.20;101246.00;;;;5024372;28;20573;-80
2023/09/16 06:27:33;;;;;;;4.35;3.85;;;18.40;61.80;20.20;101245.00;;;;5024605;28;21054;-80
2023/09/16 06:30:00;;;;;;;4.95;3.80;;;18.40;61.80;20.30;101249.00;;;;5023599;28;20212;-80
2023/09/16 06:32:28;;;;;;;4.13;3.72;;;18.40;61.80;20.30;101252.00;;;;5023463;28;20767;-80
2023/09/16 06:34:56;;;;;;;5.47;4.05;;;18.50;61.90;20.30;101254.00;;;;5021678;28;20200;-80
2023/09/16 06:37:23;;;;;;;5.22;4.07;;;18.50;61.80;20.40;101253.00;;;;5024628;28;20196;-79
2023/09/16 06:39:50;;;;;;;4.85;4.13;;;18.60;61.80;20.40;101254.00;;;;5019926;28;20203;-78
2023/09/16 06:42:17;;;;;;;8.07;4.80;;;18.60;61.80;20.40;101252.00;;;;5024498;28;20592;-78
2023/09/16 06:44:44;;;;;;;4.85;3.83;;;18.60;61.90;20.50;101251.00;;;;5021139;28;20192;-79
2023/09/16 06:47:11;;;;;;;5.05;3.90;;;18.60;61.80;20.50;101254.00;;;;5025001;28;20211;-78
2023/09/16 06:49:38;;;;;;;6.22;3.88;;;18.70;61.80;20.50;101250.00;;;;5020767;28;20211;-79
2023/09/16 06:52:06;;;;;;;4.35;3.95;;;18.70;61.80;20.50;101253.00;;;;5026433;28;20216;-79
2023/09/16 06:54:33;;;;;;;4.63;4.10;;;18.70;61.80;20.60;101252.00;;;;5022851;28;20208;-79
2023/09/16 06:57:00;;;;;;;5.57;4.15;;;18.80;61.80;20.60;101247.00;;;;5022989;28;20197;-79
2023/09/16 06:59:28;;;;;;;6.00;4.07;;;18.80;61.80;20.60;101246.00;;;;5025285;28;20204;-78
2023/09/16 07:01:57;;;;;;;4.55;3.72;;;18.80;61.80;20.60;101244.00;;;;5027463;28;20227;-76
2023/09/16 07:04:26;;;;;;;8.15;3.97;;;18.80;61.80;20.70;101252.00;;;;5028070;28;20228;-78
2023/09/16 07:06:53;;;;;;;5.53;4.07;;;18.90;61.80;20.70;101251.00;;;;5029212;28;20200;-78
2023/09/16 07:09:22;;;;;;;6.05;3.53;;;18.90;61.90;20.80;101247.00;;;;5029249;28;20251;-78
2023/09/16 07:11:49;;;;;;;5.47;4.57;;;18.90;62.10;20.80;101257.00;;;;5030108;28;20220;-79
2023/09/16 07:14:16;;;;;;;4.75;3.83;;;19.00;62.20;20.90;101249.00;;;;5025484;28;20196;-78
2023/09/16 07:16:43;;;;;;;4.85;4.18;;;19.10;63.00;21.00;101251.00;;;;5026111;28;20645;-79
2023/09/16 07:19:10;;;;;;;4.75;3.55;;;19.10;62.40;21.00;101252.00;;;;5030865;28;20193;-79
2023/09/16 07:21:37;;;;;;;6.40;3.50;;;19.20;62.50;21.10;101256.00;;;;5031789;28;20207;-79
2023/09/16 07:24:05;;;;;;;4.75;3.42;;;19.20;62.50;21.20;101256.00;;;;5028175;28;20200;-80
2023/09/16 07:26:34;;;;;;;6.45;3.67;;;19.30;62.60;21.20;101255.00;;;;5029263;28;20313;-78
2023/09/16 07:29:01;;;;;;;6.25;3.25;;;19.40;62.60;21.30;101255.00;;;;5027462;28;20200;-79
2023/09/16 07:31:27;;;;;;;4.45;3.67;;;19.40;62.50;21.40;101254.00;;;;5030765;28;20706;-79
2023/09/16 07:33:54;;;;;;;4.40;3.70;;;19.50;62.50;21.50;101249.00;;;;5029399;28;20215;-79
2023/09/16 07:36:21;;;;;;;5.28;4.03;;;19.60;62.70;21.60;101238.00;;;;5034453;28;20192;-79
2023/09/16 07:38:48;;;;;;;5.45;3.72;;;19.70;62.80;21.70;101253.00;;;;5028896;28;20208;-79
2023/09/16 07:41:15;;;;;;;5.38;4.53;;;19.80;63.00;21.80;101252.00;;;;5010820;28;20675;-79
2023/09/16 07:43:43;;;;;;;4.15;3.70;;;19.90;63.20;21.90;101252.00;;;;5017538;28;20592;-80
2023/09/16 07:46:10;;;;;;;4.20;3.80;;;20.00;63.30;22.00;101252.00;;;;5029255;28;20224;-80
2023/09/16 07:48:37;;;;;;;7.13;3.78;;;20.10;63.40;22.20;101254.00;;;;5028613;28;20201;-79
2023/09/16 07:51:04;;;;;;;4.70;3.33;;;20.20;63.50;22.30;101256.00;;;;5029116;28;20694;-79
2023/09/16 07:53:31;;;;;;;5.68;3.90;;;20.40;63.50;22.40;101255.00;;;;5027756;28;20263;-80
2023/09/16 07:55:58;;;;;;;4.95;3.40;;;20.50;63.50;22.50;101253.00;;;;5029383;28;20654;-81
2023/09/16 07:58:25;;;;;;;4.47;3.53;;;20.60;63.50;22.60;101269.00;;;;5029145;28;20618;-80
2023/09/16 08:00:54;;;;;;;5.28;3.45;;;20.70;63.40;22.70;101276.00;;;;5027914;28;20220;-80
2023/09/16 08:03:22;;;;;;;4.28;3.08;;;20.80;63.30;22.80;101276.00;;;;5028428;28;20278;-81
2023/09/16 08:05:50;;;;;;;5.75;3.50;;;21.00;63.20;22.90;101280.00;;;;5027592;28;20665;-80
2023/09/16 08:08:17;;;;;;;7.22;3.97;;;21.10;63.10;22.90;101280.00;;;;5029756;28;20513;-80
2023/09/16 08:10:47;;;;;;;4.75;3.42;;;21.10;62.90;23.00;101283.00;;;;5028444;28;20196;-80
2023/09/16 08:13:14;;;;;;;4.05;3.15;;;21.20;62.80;23.10;101278.00;;;;5026760;28;20246;-81
2023/09/16 08:15:41;;;;;;;4.40;3.42;;;21.30;62.70;23.20;101285.00;;;;5026053;28;20835;-80
2023/09/16 08:18:09;;;;;;;5.18;2.95;;;21.40;62.70;23.20;101291.00;;;;5027804;28;20193;-80
2023/09/16 08:20:36;;;;;;;4.78;2.97;;;21.50;62.70;23.30;101287.00;;;;5030022;28;20189;-80
2023/09/16 08:23:04;;;;;;;4.65;2.83;;;21.50;62.70;23.40;101291.00;;;;5030211;28;20204;-81
2023/09/16 08:25:31;;;;;;;4.88;3.75;;;21.60;62.70;23.50;101289.00;;;;5028560;28;20786;-81
2023/09/16 08:27:58;;;;;;;4.93;3.60;;;21.70;62.50;23.70;101292.00;;;;5028148;28;20207;-81
2023/09/16 08:30:25;;;;;;;4.88;3.80;;;21.80;62.40;23.80;101304.00;;;;5029108;28;20207;-81
2023/09/16 08:32:52;;;;;;;4.93;3.50;;;21.90;62.50;23.90;101293.00;;;;5027153;28;20252;-81
2023/09/16 08:35:25;;;;;;;7.28;3.80;;;22.00;62.50;24.10;101292.00;;;;5028838;28;20208;-81
2023/09/16 08:37:54;;;;;;;5.55;3.88;;;22.20;62.70;24.20;101296.00;;;;5013674;28;20203;-81
2023/09/16 08:40:22;;;;;;;5.63;4.30;;;22.30;62.40;24.30;101306.00;;;;5027909;28;20619;-81
2023/09/16 08:42:58;;;;;;;5.28;4.30;;;22.50;62.10;24.40;101291.00;;;;5027233;28;20197;-81
2023/09/16 08:45:32;;;;;;;5.70;4.05;;;22.60;61.90;24.60;101295.00;;;;5028702;28;20199;-82
2023/09/16 08:48:04;;;;;;;9.20;4.18;;;22.70;61.90;24.70;101297.00;;;;5025870;28;20200;-80
2023/09/16 08:50:33;;;;;;;5.65;4.20;;;22.90;61.70;24.90;101296.00;;;;5025949;28;20211;-81
2023/09/16 08:53:07;;;;;;;4.47;3.78;;;23.00;61.60;25.00;101294.00;;;;5026645;28;20569;-81
2023/09/16 08:55:35;;;;;;;6.28;4.40;;;23.20;62.30;25.20;101301.00;;;;5029406;28;20673;-81
2023/09/16 08:58:06;;;;;;;7.68;4.00;;;23.40;61.40;25.30;101297.00;;;;5025883;28;20720;-81
2023/09/16 09:00:33;;;;;;;4.40;3.40;;;23.50;61.20;25.50;101301.00;;;;5026586;28;20207;-81
2023/09/16 09:03:00;;;;;;;4.53;3.67;;;23.60;60.80;25.60;101311.00;;;;5023350;28;20251;-81
2023/09/16 09:05:29;;;;;;;6.30;3.72;;;23.80;60.50;25.70;101309.00;;;;5027068;28;20200;-81
2023/09/16 09:07:58;;;;;;;4.70;3.55;;;23.90;60.20;25.90;101310.00;;;;5028117;28;20194;-81
2023/09/16 09:10:25;;;;;;;4.95;3.42;;;24.10;60.20;26.00;101311.00;;;;5024457;28;20223;-82
2023/09/16 09:12:52;;;;;;;9.50;4.28;;;24.20;60.10;26.10;101307.00;;;;5025751;28;20225;-81
2023/09/16 09:15:20;;;;;;;4.47;3.60;;;24.40;60.00;26.20;101307.00;;;;5025667;28;20657;-81
2023/09/16 09:17:51;;;;;;;5.22;3.17;;;24.50;59.70;26.40;101309.00;;;;5026727;28;20208;-80
2023/09/16 09:20:21;;;;;;;4.40;3.58;;;24.60;59.70;26.50;101305.00;;;;5025686;28;20556;-81
2023/09/16 09:22:50;;;;;;;5.00;3.55;;;24.70;59.50;26.70;101307.00;;;;5024198;28;20211;-81
2023/09/16 09:25:23;;;;;;;5.72;3.45;;;24.90;59.50;26.80;101311.00;;;;5023019;28;20200;-80
2023/09/16 09:30:27;;;;;;;4.57;3.03;;;25.20;59.40;27.10;101315.00;;;;4633651;22;20460;-80
2023/09/16 09:32:55;;;;;;;5.25;3.83;;;25.30;59.10;27.30;101317.00;;;;5043104;28;20300;-80
2023/09/16 09:35:24;;;;;;;4.35;3.55;;;25.50;59.10;27.40;101317.00;;;;5045413;28;20187;-79
2023/09/16 09:37:51;;;;;;;4.15;3.00;;;25.60;59.00;27.60;101317.00;;;;5047780;28;20207;-79
2023/09/16 09:40:21;;;;;;;7.35;3.65;;;25.80;59.50;27.70;101330.00;;;;5046210;28;20210;-79
2023/09/16 09:42:50;;;;;;;3.92;3.45;;;25.90;58.70;27.80;101324.00;;;;5040754;28;20253;-79
2023/09/16 09:45:19;;;;;;;3.40;3.08;;;26.00;58.30;27.90;101328.00;;;;5047070;28;20203;-80
2023/09/16 09:47:49;;;;;;;5.78;3.63;;;26.20;58.00;28.00;101324.00;;;;5047274;28;20199;-80
2023/09/16 09:50:18;;;;;;;6.13;3.70;;;26.30;57.60;28.10;101322.00;;;;5044625;28;20578;-80
2023/09/16 09:52:51;;;;;;;4.70;3.67;;;26.40;57.60;28.10;101325.00;;;;5036584;28;20220;-80
2023/09/16 09:55:19;;;;;;;5.28;3.35;;;26.50;57.20;28.20;101320.00;;;;5045529;28;20196;-82
2023/09/16 09:57:50;;;;;;;5.13;3.55;;;26.60;57.00;28.30;101319.00;;;;5044631;28;20204;-80
2023/09/16 10:00:20;;;;;;;7.28;3.95;;;26.70;57.10;28.50;101325.00;;;;5045601;28;20191;-81
2023/09/16 10:02:48;;;;;;;3.75;3.35;;;26.80;57.30;28.60;101331.00;;;;5046070;28;20195;-84
2023/09/16 10:05:16;;;;;;;4.70;3.50;;;26.90;57.20;28.80;101326.00;;;;5042762;28;20196;-81
2023/09/16 10:07:45;;;;;;;4.18;3.22;;;27.10;57.10;28.90;101325.00;;;;5045523;28;20191;-84
2023/09/16 10:10:17;;;;;;;6.03;4.03;;;27.20;57.10;29.10;101329.00;;;;5043136;28;20204;-81
2023/09/16 10:12:45;;;;;;;4.35;3.72;;;27.40;57.00;29.30;101330.00;;;;5045319;28;20215;-80
2023/09/16 10:15:14;;;;;;;3.55;3.22;;;27.50;57.00;29.40;101334.00;;;;5045555;28;20200;-80
2023/09/16 10:17:43;;;;;;;4.35;3.83;;;27.70;57.00;29.60;101324.00;;;;5035418;28;20945;-81
2023/09/16 10:20:13;;;;;;;5.05;3.78;;;27.90;56.80;29.70;101329.00;;;;5039800;28;20192;-82
2023/09/16 10:22:42;;;;;;;6.97;3.67;;;28.00;56.00;29.80;101327.00;;;;5046262;28;20203;-82
2023/09/16 10:25:11;;;;;;;3.78;2.67;;;28.20;55.40;29.90;101331.00;;;;5042483;28;20204;-81
2023/09/16 10:27:48;;;;;;;3.95;2.88;;;28.30;55.20;30.00;101332.00;;;;5045561;28;20207;-82
2023/09/16 10:30:18;;;;;;;3.70;2.95;;;28.40;55.00;30.10;101331.00;;;;5026391;28;20759;-81
2023/09/16 10:32:45;;;;;;;4.00;3.08;;;28.50;54.90;30.20;101331.00;;;;5025505;28;20227;-81
2023/09/16 10:35:13;;;;;;;4.60;3.17;;;28.60;54.70;30.30;101335.00;;;;5024231;28;20243;-80
2023/09/16 10:37:42;;;;;;;3.88;3.00;;;28.70;54.40;30.30;101338.00;;;;5021667;28;20207;-80
2023/09/16 10:40:13;;;;;;;4.40;3.15;;;28.80;54.10;30.40;101329.00;;;;5029290;28;20211;-77
2023/09/16 10:42:42;;;;;;;2.95;2.35;;;28.90;53.70;30.40;101329.00;;;;5029906;28;20203;-77
2023/09/16 10:45:13;;;;;;;4.85;2.78;;;28.90;53.40;30.50;101334.00;;;;5029092;28;20201;-77
2023/09/16 10:47:42;;;;;;;4.47;3.28;;;29.00;53.30;30.50;101334.00;;;;5027356;28;20674;-77
2023/09/16 10:50:11;;;;;;;3.53;2.90;;;29.00;53.30;30.60;101326.00;;;;5026674;28;20204;-78
2023/09/16 10:52:42;;;;;;;3.45;2.60;;;29.10;53.40;30.70;101320.00;;;;5028466;28;20196;-79
2023/09/16 10:55:20;;;;;;;3.05;2.58;;;29.20;53.10;30.80;101327.00;;;;5029191;28;20191;-79